Time,TemperatureF,DewpointF,PressureIn,WindDirection,WindDirectionDegrees,WindSpeedMPH,WindSpeedGustMPH,Humidity,HourlyPrecipIn,Conditions,Clouds,dailyrainin,SoftwareType,DateUTC
2013-05-21 00:02:00,80.0,71.0,29.68,SSE,149,5.0,10.0,75,0.00,,,0.00,,2013-05-21 05:02:00,
2013-05-21 00:12:00,82.0,71.0,29.68,SSE,162,12.0,20.0,70,0.00,,,0.00,,2013-05-21 05:12:00,
2013-05-21 00:22:00,82.0,71.0,29.68,SSE,162,12.0,20.0,70,0.00,,,0.00,,2013-05-21 05:22:00,
2013-05-21 00:32:00,81.0,71.0,29.68,SSE,156,10.0,17.0,72,0.00,,,0.00,,2013-05-21 05:32:00,
2013-05-21 00:42:00,81.0,71.0,29.66,SSE,157,10.0,26.0,72,0.00,,,0.00,,2013-05-21 05:42:00,
2013-05-21 00:51:00,81.0,71.0,29.66,SSE,157,10.0,26.0,72,0.00,,,0.00,,2013-05-21 05:51:00,
2013-05-21 01:02:00,81.0,71.0,29.66,SSE,157,10.0,26.0,72,0.00,,,0.00,,2013-05-21 06:02:00,
2013-05-21 01:12:00,81.0,71.0,29.66,SSE,157,10.0,26.0,72,0.00,,,0.00,,2013-05-21 06:12:00,
2013-05-21 01:21:00,81.0,71.0,29.66,SSE,157,10.0,26.0,72,0.00,,,0.00,,2013-05-21 06:21:00,
2013-05-21 01:32:00,79.0,71.0,29.64,SE,145,10.0,17.0,76,0.00,,,0.00,,2013-05-21 06:32:00,
2013-05-21 01:42:00,79.0,71.0,29.64,SE,145,10.0,17.0,76,0.00,,,0.00,,2013-05-21 06:42:00,
2013-05-21 01:52:00,79.0,71.0,29.64,SE,145,10.0,17.0,76,0.00,,,0.00,,2013-05-21 06:52:00,
2013-05-21 02:01:00,78.0,71.0,29.63,SSE,154,10.0,16.0,78,0.00,,,0.00,,2013-05-21 07:01:00,
2013-05-21 02:11:00,78.0,71.0,29.63,SSE,154,10.0,16.0,78,0.00,,,0.00,,2013-05-21 07:11:00,
2013-05-21 02:22:00,78.0,71.0,29.65,SSE,161,12.0,26.0,78,0.00,,,0.00,,2013-05-21 07:22:00,
2013-05-21 02:31:00,78.0,71.0,29.65,South,181,10.0,21.0,79,0.00,,,0.00,,2013-05-21 07:31:00,
2013-05-21 02:41:00,78.0,71.0,29.65,South,181,10.0,21.0,79,0.00,,,0.00,,2013-05-21 07:41:00,
2013-05-21 02:52:00,78.0,71.0,29.65,South,181,10.0,21.0,79,0.00,,,0.00,,2013-05-21 07:52:00,
2013-05-21 03:02:00,77.0,70.0,29.68,South,187,3.0,8.0,79,0.00,,,0.00,,2013-05-21 08:02:00,
2013-05-21 03:11:00,76.0,69.0,29.68,South,184,4.0,8.0,80,0.00,,,0.00,,2013-05-21 08:11:00,
2013-05-21 03:21:00,76.0,69.0,29.68,South,184,4.0,8.0,80,0.00,,,0.00,,2013-05-21 08:21:00,
2013-05-21 03:31:00,76.0,69.0,29.67,South,179,5.0,15.0,80,0.00,,,0.00,,2013-05-21 08:31:00,
2013-05-21 03:41:00,76.0,69.0,29.67,SSE,165,6.0,12.0,80,0.00,,,0.00,,2013-05-21 08:41:00,
2013-05-21 03:52:00,76.0,69.0,29.67,SSE,165,6.0,12.0,80,0.00,,,0.00,,2013-05-21 08:52:00,
2013-05-21 04:01:00,76.0,69.0,29.67,SSE,165,6.0,12.0,80,0.00,,,0.00,,2013-05-21 09:01:00,
2013-05-21 04:11:00,76.0,69.0,29.67,SSE,165,6.0,12.0,80,0.00,,,0.00,,2013-05-21 09:11:00,
2013-05-21 04:21:00,75.0,68.0,29.68,SSE,155,5.0,9.0,80,0.00,,,0.00,,2013-05-21 09:21:00,
2013-05-21 04:32:00,75.0,68.0,29.69,SSE,161,5.0,10.0,80,0.00,,,0.00,,2013-05-21 09:32:00,
2013-05-21 04:42:00,75.0,68.0,29.69,SSE,161,5.0,10.0,80,0.00,,,0.00,,2013-05-21 09:42:00,
2013-05-21 04:52:00,75.0,68.0,29.69,SSE,164,6.0,10.0,80,0.00,,,0.00,,2013-05-21 09:52:00,
2013-05-21 05:02:00,74.0,67.0,29.69,SSE,153,3.0,9.0,80,0.00,,,0.00,,2013-05-21 10:02:00,
2013-05-21 05:12:00,74.0,67.0,29.69,SSE,153,3.0,9.0,80,0.00,,,0.00,,2013-05-21 10:12:00,
2013-05-21 05:22:00,74.0,67.0,29.70,SSE,156,4.0,10.0,80,0.00,,,0.00,,2013-05-21 10:22:00,
2013-05-21 05:32:00,74.0,67.0,29.70,SSE,164,5.0,9.0,79,0.00,,,0.00,,2013-05-21 10:32:00,
2013-05-21 05:42:00,74.0,67.0,29.70,SSE,164,5.0,9.0,79,0.00,,,0.00,,2013-05-21 10:42:00,
2013-05-21 05:52:00,74.0,67.0,29.70,SSE,153,5.0,8.0,80,0.00,,,0.00,,2013-05-21 10:52:00,
2013-05-21 06:02:00,74.0,67.0,29.70,SSE,151,4.0,12.0,80,0.00,,,0.00,,2013-05-21 11:02:00,
2013-05-21 06:12:00,74.0,67.0,29.70,SSE,151,4.0,12.0,80,0.00,,,0.00,,2013-05-21 11:12:00,
2013-05-21 06:21:00,74.0,67.0,29.70,SSE,157,6.0,10.0,80,0.00,,,0.00,,2013-05-21 11:21:00,
2013-05-21 06:32:00,74.0,67.0,29.70,SSE,151,4.0,7.0,80,0.00,,,0.00,,2013-05-21 11:32:00,
2013-05-21 06:41:00,74.0,67.0,29.70,SSE,151,4.0,7.0,80,0.00,,,0.00,,2013-05-21 11:41:00,
2013-05-21 06:51:00,73.0,66.0,29.70,SSE,156,3.0,7.0,79,0.00,,,0.00,,2013-05-21 11:51:00,
2013-05-21 07:01:00,73.0,65.0,29.72,SE,144,2.0,5.0,77,0.00,,,0.00,,2013-05-21 12:01:00,
2013-05-21 07:11:00,73.0,65.0,29.72,SE,144,2.0,5.0,77,0.00,,,0.00,,2013-05-21 12:11:00,
2013-05-21 07:21:00,73.0,65.0,29.72,SE,141,2.0,5.0,77,0.00,,,0.00,,2013-05-21 12:21:00,
2013-05-21 07:32:00,73.0,65.0,29.73,SSE,152,2.0,3.0,75,0.00,,,0.00,,2013-05-21 12:32:00,
2013-05-21 07:41:00,73.0,65.0,29.73,SSE,152,2.0,3.0,75,0.00,,,0.00,,2013-05-21 12:41:00,
2013-05-21 07:51:00,74.0,66.0,29.72,SE,142,3.0,6.0,76,0.00,,,0.00,,2013-05-21 12:51:00,
2013-05-21 08:01:00,74.0,66.0,29.72,SSE,155,3.0,5.0,76,0.00,,,0.00,,2013-05-21 13:01:00,
2013-05-21 08:12:00,74.0,66.0,29.72,SSE,155,3.0,5.0,76,0.00,,,0.00,,2013-05-21 13:12:00,
2013-05-21 08:22:00,74.0,66.0,29.72,SSE,155,3.0,5.0,76,0.00,,,0.00,,2013-05-21 13:22:00,
2013-05-21 08:32:00,75.0,68.0,29.72,SSE,161,7.0,12.0,78,0.00,,,0.00,,2013-05-21 13:32:00,
2013-05-21 08:41:00,75.0,68.0,29.71,SSE,156,9.0,14.0,79,0.00,,,0.00,,2013-05-21 13:41:00,
2013-05-21 08:52:00,75.0,68.0,29.71,SSE,156,9.0,14.0,79,0.00,,,0.00,,2013-05-21 13:52:00,
2013-05-21 09:01:00,75.0,68.0,29.71,SSE,156,9.0,14.0,79,0.00,,,0.00,,2013-05-21 14:01:00,
2013-05-21 09:11:00,75.0,68.0,29.71,SSE,156,9.0,14.0,79,0.00,,,0.00,,2013-05-21 14:11:00,
2013-05-21 09:21:00,75.0,68.0,29.71,SSE,156,9.0,14.0,79,0.00,,,0.00,,2013-05-21 14:21:00,
2013-05-21 10:33:00,79.0,72.0,29.72,SSE,168,7.0,16.0,79,0.00,,,0.00,,2013-05-21 15:33:00,
2013-05-21 10:42:00,79.0,72.0,29.72,SSE,168,7.0,16.0,79,0.00,,,0.00,,2013-05-21 15:42:00,
2013-05-21 10:53:00,79.0,72.0,29.72,SSE,168,7.0,16.0,79,0.00,,,0.00,,2013-05-21 15:53:00,
2013-05-21 11:03:00,80.0,72.0,29.73,SSE,168,8.0,17.0,77,0.00,,,0.00,,2013-05-21 16:03:00,
2013-05-21 11:12:00,80.0,72.0,29.73,SSE,159,7.0,14.0,77,0.00,,,0.00,,2013-05-21 16:12:00,
2013-05-21 11:23:00,80.0,72.0,29.73,SSE,159,7.0,14.0,77,0.00,,,0.00,,2013-05-21 16:23:00,
2013-05-21 11:32:00,80.0,72.0,29.73,SSE,159,7.0,14.0,77,0.00,,,0.00,,2013-05-21 16:32:00,
2013-05-21 11:42:00,81.0,72.0,29.73,South,181,7.0,17.0,74,0.00,,,0.00,,2013-05-21 16:42:00,
2013-05-21 11:52:00,81.0,72.0,29.73,South,181,7.0,17.0,74,0.00,,,0.00,,2013-05-21 16:52:00,
2013-05-21 12:02:00,82.0,73.0,29.72,South,176,7.0,17.0,74,0.00,,,0.00,,2013-05-21 17:02:00,
2013-05-21 12:12:00,82.0,72.0,29.72,SE,146,7.0,20.0,73,0.00,,,0.00,,2013-05-21 17:12:00,
2013-05-21 12:23:00,82.0,72.0,29.72,SE,146,7.0,20.0,73,0.00,,,0.00,,2013-05-21 17:23:00,
2013-05-21 12:32:00,84.0,74.0,29.71,South,181,10.0,18.0,72,0.00,,,0.00,,2013-05-21 17:32:00,
2013-05-21 12:43:00,82.0,72.0,29.71,South,180,8.0,17.0,72,0.00,,,0.00,,2013-05-21 17:43:00,
2013-05-21 12:52:00,82.0,72.0,29.71,South,180,8.0,17.0,72,0.00,,,0.00,,2013-05-21 17:52:00,
2013-05-21 13:01:00,84.0,73.0,29.70,South,187,10.0,20.0,69,0.00,,,0.00,,2013-05-21 18:01:00,
2013-05-21 13:12:00,83.0,73.0,29.69,SSE,157,12.0,18.0,71,0.00,,,0.00,,2013-05-21 18:12:00,
2013-05-21 13:22:00,83.0,73.0,29.69,SSE,157,12.0,18.0,71,0.00,,,0.00,,2013-05-21 18:22:00,
2013-05-21 13:32:00,84.0,73.0,29.68,South,175,9.0,20.0,70,0.00,,,0.00,,2013-05-21 18:32:00,
2013-05-21 13:42:00,84.0,72.0,29.67,South,171,10.0,23.0,68,0.00,,,0.00,,2013-05-21 18:42:00,
2013-05-21 13:51:00,84.0,72.0,29.67,South,171,10.0,23.0,68,0.00,,,0.00,,2013-05-21 18:51:00,
2013-05-21 14:01:00,83.0,72.0,29.66,SSE,163,12.0,21.0,69,0.00,,,0.00,,2013-05-21 19:01:00,
2013-05-21 14:11:00,83.0,72.0,29.66,SSE,156,7.0,16.0,70,0.00,,,0.00,,2013-05-21 19:11:00,
2013-05-21 14:21:00,83.0,72.0,29.66,SSE,156,7.0,16.0,70,0.00,,,0.00,,2013-05-21 19:21:00,
2013-05-21 14:32:00,82.0,72.0,29.64,SSE,157,13.0,18.0,72,0.00,,,0.00,,2013-05-21 19:32:00,
2013-05-21 14:42:00,82.0,72.0,29.63,SSE,163,10.0,16.0,72,0.00,,,0.00,,2013-05-21 19:42:00,
2013-05-21 14:52:00,82.0,72.0,29.63,SSE,163,10.0,16.0,72,0.00,,,0.00,,2013-05-21 19:52:00,
2013-05-21 15:03:00,82.0,72.0,29.62,SSE,167,9.0,14.0,73,0.00,,,0.00,,2013-05-21 20:03:00,
2013-05-21 15:11:00,82.0,72.0,29.62,SSE,167,9.0,14.0,73,0.00,,,0.00,,2013-05-21 20:11:00,
2013-05-21 15:22:00,82.0,72.0,29.62,SSE,167,9.0,14.0,73,0.00,,,0.00,,2013-05-21 20:22:00,
2013-05-21 15:32:00,82.0,72.0,29.62,SSE,167,9.0,14.0,73,0.00,,,0.00,,2013-05-21 20:32:00,
2013-05-21 16:33:00,64.0,39.0,29.68,NE,36,6.0,13.0,40,1.22,,,1.29,,2013-05-21 21:33:00,
2013-05-21 16:43:00,63.0,41.0,29.68,NNE,22,8.0,15.0,45,0.97,,,1.31,,2013-05-21 21:43:00,
2013-05-21 16:54:00,63.0,41.0,29.68,NNE,22,8.0,15.0,45,0.97,,,1.31,,2013-05-21 21:54:00,
2013-05-21 17:02:00,63.0,39.0,29.68,North,9,5.0,14.0,41,0.89,,,1.46,,2013-05-21 22:02:00,
2013-05-21 17:12:00,63.0,39.0,29.68,North,9,5.0,14.0,41,0.89,,,1.46,,2013-05-21 22:12:00,
2013-05-21 17:22:00,63.0,38.0,29.70,North,5,4.0,7.0,39,0.56,,,1.47,,2013-05-21 22:22:00,
2013-05-21 17:33:00,63.0,37.0,29.71,NNE,18,5.0,9.0,38,0.26,,,1.47,,2013-05-21 22:33:00,
2013-05-21 17:42:00,63.0,38.0,29.71,North,4,2.0,5.0,39,0.16,,,1.47,,2013-05-21 22:42:00,
2013-05-21 17:52:00,63.0,38.0,29.71,North,4,2.0,5.0,39,0.16,,,1.47,,2013-05-21 22:52:00,
2013-05-21 18:02:00,63.0,38.0,29.71,North,4,2.0,5.0,39,0.16,,,1.47,,2013-05-21 23:02:00,
2013-05-21 18:12:00,63.0,38.0,29.71,North,4,2.0,5.0,39,0.16,,,1.47,,2013-05-21 23:12:00,
2013-05-21 18:22:00,63.0,38.0,29.71,North,4,2.0,5.0,39,0.16,,,1.47,,2013-05-21 23:22:00,
2013-05-21 18:42:00,63.0,44.0,29.71,WNW,296,5.0,7.0,49,0.00,,,1.47,,2013-05-21 23:42:00,
2013-05-21 18:52:00,63.0,44.0,29.71,WNW,296,5.0,7.0,49,0.00,,,1.47,,2013-05-21 23:52:00,
2013-05-21 19:01:00,63.0,44.0,29.71,WNW,296,5.0,7.0,49,0.00,,,1.47,,2013-05-22 00:01:00,
2013-05-21 19:11:00,63.0,44.0,29.71,WNW,296,5.0,7.0,49,0.00,,,1.47,,2013-05-22 00:11:00,
2013-05-21 19:21:00,63.0,44.0,29.71,WNW,296,5.0,7.0,49,0.00,,,1.47,,2013-05-22 00:21:00,
2013-05-21 19:32:00,64.0,49.0,29.73,NW,311,3.0,9.0,58,0.00,,,1.47,,2013-05-22 00:32:00,
2013-05-21 19:42:00,64.0,49.0,29.73,NW,311,3.0,9.0,58,0.00,,,1.47,,2013-05-22 00:42:00,
2013-05-21 19:52:00,64.0,49.0,29.73,NW,311,3.0,9.0,58,0.00,,,1.47,,2013-05-22 00:52:00,
2013-05-21 20:01:00,64.0,54.0,29.73,North,5,5.0,10.0,71,0.00,,,1.47,,2013-05-22 01:01:00,
2013-05-21 20:11:00,64.0,54.0,29.73,North,5,5.0,10.0,71,0.00,,,1.47,,2013-05-22 01:11:00,
2013-05-21 20:21:00,64.0,54.0,29.73,North,5,5.0,10.0,71,0.00,,,1.47,,2013-05-22 01:21:00,
2013-05-21 20:32:00,64.0,54.0,29.76,North,5,4.0,7.0,71,0.00,,,1.47,,2013-05-22 01:32:00,
2013-05-21 20:41:00,64.0,54.0,29.76,NNW,339,3.0,7.0,70,0.00,,,1.47,,2013-05-22 01:41:00,
2013-05-21 20:52:00,64.0,54.0,29.76,NNW,339,3.0,7.0,70,0.00,,,1.47,,2013-05-22 01:52:00,
2013-05-21 21:01:00,63.0,53.0,29.76,NNW,332,1.0,5.0,71,0.00,,,1.47,,2013-05-22 02:01:00,
2013-05-21 21:11:00,63.0,54.0,29.76,NNW,339,2.0,5.0,73,0.00,,,1.47,,2013-05-22 02:11:00,
2013-05-21 21:21:00,63.0,54.0,29.76,NNW,339,2.0,5.0,73,0.00,,,1.47,,2013-05-22 02:21:00,
2013-05-21 21:32:00,63.0,53.0,29.76,North,353,3.0,6.0,69,0.00,,,1.47,,2013-05-22 02:32:00,
2013-05-21 21:41:00,63.0,53.0,29.76,North,353,3.0,6.0,69,0.00,,,1.47,,2013-05-22 02:41:00,
2013-05-21 21:51:00,63.0,53.0,29.76,North,353,3.0,6.0,69,0.00,,,1.47,,2013-05-22 02:51:00,
2013-05-21 22:01:00,63.0,52.0,29.77,North,355,1.0,3.0,67,0.00,,,1.47,,2013-05-22 03:01:00,
2013-05-21 22:11:00,64.0,53.0,29.78,WNW,288,3.0,6.0,67,0.00,,,1.47,,2013-05-22 03:11:00,
2013-05-21 22:21:00,64.0,53.0,29.78,WNW,288,3.0,6.0,67,0.00,,,1.47,,2013-05-22 03:21:00,
2013-05-21 22:33:00,63.0,54.0,29.79,NW,305,3.0,10.0,73,0.00,,,1.47,,2013-05-22 03:33:00,
2013-05-21 22:43:00,63.0,55.0,29.79,WNW,297,7.0,9.0,74,0.00,,,1.47,,2013-05-22 03:43:00,
2013-05-21 22:53:00,63.0,55.0,29.79,WNW,297,7.0,9.0,74,0.00,,,1.47,,2013-05-22 03:53:00,
2013-05-21 23:03:00,64.0,56.0,29.80,NW,307,5.0,12.0,76,0.00,,,1.47,,2013-05-22 04:03:00,
2013-05-21 23:13:00,64.0,56.0,29.80,NW,307,5.0,12.0,76,0.00,,,1.47,,2013-05-22 04:13:00,
2013-05-21 23:22:00,64.0,54.0,29.80,WNW,288,3.0,8.0,71,0.00,,,1.47,,2013-05-22 04:22:00,
2013-05-21 23:33:00,64.0,56.0,29.81,NW,305,3.0,6.0,76,0.00,,,1.47,,2013-05-22 04:33:00,
2013-05-21 23:43:00,64.0,56.0,29.81,NW,305,3.0,6.0,76,0.00,,,1.47,,2013-05-22 04:43:00,
2013-05-21 23:53:00,64.0,56.0,29.81,NW,305,3.0,6.0,76,0.00,,,1.47,,2013-05-22 04:53:00,